Time;durP1;ratioP1;P1;durP2;ratioP2;P2;SDS_P1;SDS_P2;PMS_P1;PMS_P2;Temp;Humidity;BMP_temperature;BMP_pressure;BME280_temperature;BME280_humidity;BME280_pressure;Samples;Min_cycle;Max_cycle;Signal;HPM_P1;HPM_P2
2024/01/13 00:01:22;;;;;;;20.27;6.33;;;;;;;-6.71;59.90;100912.66;123724;1098;104261;-79
2024/01/13 00:04:02;;;;;;;19.77;6.70;;;;;;;-6.74;59.88;100905.55;123521;1099;104221;-79
2024/01/13 00:06:33;;;;;;;20.23;6.90;;;;;;;-6.73;60.75;100912.48;123313;1099;104349;-79
2024/01/13 00:09:05;;;;;;;22.20;6.80;;;;;;;-6.73;60.46;100906.45;123264;1099;104312;-79
2024/01/13 00:11:36;;;;;;;18.07;7.33;;;;;;;-6.81;60.57;100907.27;123560;1099;104317;-79
2024/01/13 00:14:08;;;;;;;18.73;7.40;;;;;;;-6.85;61.02;100905.13;123687;1099;104200;-79
2024/01/13 00:16:39;;;;;;;21.57;6.43;;;;;;;-6.90;59.40;100907.17;123667;1098;104275;-79
2024/01/13 00:19:11;;;;;;;18.55;6.70;;;;;;;-6.91;60.16;100907.89;123612;1099;104271;-79
2024/01/13 00:21:42;;;;;;;21.03;6.67;;;;;;;-6.98;59.77;100903.77;123628;1099;104268;-79
2024/01/13 00:24:13;;;;;;;18.80;5.73;;;;;;;-7.03;59.92;100903.98;123634;1099;104331;-79
2024/01/13 00:26:45;;;;;;;17.93;5.70;;;;;;;-7.07;60.54;100902.74;123606;1099;104274;-79
2024/01/13 00:29:16;;;;;;;18.40;5.93;;;;;;;-7.09;60.35;100910.22;123319;1099;104306;-79
2024/01/13 00:31:47;;;;;;;17.40;5.80;;;;;;;-7.17;60.32;100905.88;123635;1099;104357;-79
2024/01/13 00:34:18;;;;;;;18.43;5.40;;;;;;;-7.21;60.44;100898.64;123644;1098;104315;-79
2024/01/13 00:36:49;;;;;;;15.00;5.70;;;;;;;-7.24;59.38;100898.30;123690;1099;104316;-79
2024/01/13 00:39:20;;;;;;;19.93;6.13;;;;;;;-7.26;60.34;100898.13;123697;1099;104380;-79
2024/01/13 00:41:52;;;;;;;16.33;5.77;;;;;;;-7.26;59.73;100885.38;123637;1099;104271;-79
2024/01/13 00:44:23;;;;;;;17.53;6.07;;;;;;;-7.28;60.31;100879.17;123251;1099;104273;-79
2024/01/13 00:46:54;;;;;;;16.33;5.13;;;;;;;-7.29;60.44;100877.38;123664;1099;104341;-80
2024/01/13 00:49:25;;;;;;;16.67;6.17;;;;;;;-7.29;59.74;100874.84;123566;1099;104255;-80
2024/01/13 00:51:56;;;;;;;16.50;5.85;;;;;;;-7.36;59.88;100872.32;123288;1099;105707;-80
2024/01/13 00:54:27;;;;;;;17.20;5.87;;;;;;;-7.39;59.74;100860.88;123572;1099;104348;-80
2024/01/13 00:56:58;;;;;;;16.40;5.30;;;;;;;-7.46;60.28;100864.40;123706;1099;104217;-80
2024/01/13 00:59:29;;;;;;;18.47;6.60;;;;;;;-7.47;60.42;100860.92;123211;1099;104425;-80
2024/01/13 01:02:00;;;;;;;17.67;5.63;;;;;;;-7.49;60.30;100851.31;123701;1099;104303;-79
2024/01/13 01:04:32;;;;;;;16.20;5.80;;;;;;;-7.51;59.89;100850.20;123836;1099;104242;-80
2024/01/13 01:07:03;;;;;;;17.13;5.93;;;;;;;-7.55;60.15;100842.97;123264;1099;104369;-80
2024/01/13 01:09:34;;;;;;;17.03;5.70;;;;;;;-7.58;59.58;100830.77;123793;1099;104242;-80
2024/01/13 01:12:06;;;;;;;18.83;5.80;;;;;;;-7.57;60.20;100822.41;123659;1099;104409;-80
2024/01/13 01:14:37;;;;;;;17.80;5.80;;;;;;;-7.60;60.16;100824.61;123662;1099;104277;-80
2024/01/13 01:17:09;;;;;;;18.67;5.80;;;;;;;-7.61;60.31;100803.30;123252;1099;104277;-80
2024/01/13 01:19:40;;;;;;;17.37;5.77;;;;;;;-7.62;60.40;100808.22;123593;1099;104665;-80
2024/01/13 01:22:11;;;;;;;18.53;5.80;;;;;;;-7.59;60.95;100803.47;123685;1099;104629;-80
2024/01/13 01:24:42;;;;;;;13.53;4.53;;;;;;;-7.62;59.58;100801.50;123638;1099;104666;-80
2024/01/13 01:27:13;;;;;;;14.17;4.87;;;;;;;-7.65;60.29;100796.06;123625;1099;104328;-80
2024/01/13 01:29:44;;;;;;;15.07;5.23;;;;;;;-7.66;60.50;100793.34;123671;1099;104245;-80
2024/01/13 01:32:16;;;;;;;14.17;5.50;;;;;;;-7.68;59.59;100787.14;123632;1099;104319;-80
2024/01/13 01:34:47;;;;;;;14.23;5.73;;;;;;;-7.73;59.97;100786.63;123427;1099;104321;-80
2024/01/13 01:37:18;;;;;;;12.03;4.90;;;;;;;-7.77;59.92;100781.95;123811;1099;104427;-80
2024/01/13 01:39:55;;;;;;;15.53;4.97;;;;;;;-7.84;60.81;100781.98;123588;1099;104278;-80
2024/01/13 01:42:26;;;;;;;16.40;5.10;;;;;;;-7.83;59.60;100786.34;123609;1099;104268;-80
2024/01/13 01:44:57;;;;;;;14.05;4.80;;;;;;;-7.81;59.45;100779.77;123604;1099;104351;-80
2024/01/13 01:47:30;;;;;;;15.00;5.15;;;;;;;-7.81;59.79;100777.23;123674;1099;104275;-80
2024/01/13 01:50:02;;;;;;;15.80;5.10;;;;;;;-7.80;60.43;100779.05;123715;1099;104355;-80
2024/01/13 01:52:33;;;;;;;13.77;5.07;;;;;;;-7.82;60.17;100780.50;123409;1098;104254;-80
2024/01/13 01:55:05;;;;;;;12.77;5.00;;;;;;;-7.84;59.87;100781.98;123255;1099;104280;-80
2024/01/13 01:57:39;;;;;;;14.93;5.23;;;;;;;-7.84;60.35;100767.59;123569;1099;104351;-80
2024/01/13 02:00:11;;;;;;;12.53;4.67;;;;;;;-7.85;59.40;100775.05;123660;1099;104294;-80
2024/01/13 02:02:43;;;;;;;15.07;5.13;;;;;;;-7.88;60.56;100769.62;123172;1098;104731;-80
2024/01/13 02:05:15;;;;;;;15.40;5.07;;;;;;;-7.88;60.12;100774.71;123168;1099;104338;-80
2024/01/13 02:07:50;;;;;;;14.73;5.13;;;;;;;-7.86;59.47;100765.63;123211;1099;104303;-80
2024/01/13 02:10:22;;;;;;;18.00;5.40;;;;;;;-7.87;59.44;100746.86;123660;1099;104399;-80
2024/01/13 02:12:53;;;;;;;13.40;4.50;;;;;;;-7.86;60.00;100741.04;123659;1099;104265;-80
2024/01/13 02:15:24;;;;;;;13.97;4.73;;;;;;;-7.87;60.36;100735.78;123190;1099;104357;-80
2024/01/13 02:17:55;;;;;;;14.85;5.05;;;;;;;-7.88;60.08;100728.86;123606;1099;104337;-80
2024/01/13 02:20:27;;;;;;;14.47;5.43;;;;;;;-7.88;59.86;100721.22;123662;1098;104286;-80
2024/01/13 02:22:58;;;;;;;14.73;5.17;;;;;;;-7.90;59.56;100720.15;123232;1099;104469;-80
2024/01/13 02:25:29;;;;;;;12.50;5.10;;;;;;;-7.88;59.79;100716.12;123569;1099;104274;-80
2024/01/13 02:28:00;;;;;;;16.30;5.00;;;;;;;-7.88;60.70;100708.48;123603;1099;104473;-80
2024/01/13 02:30:32;;;;;;;14.37;4.77;;;;;;;-7.88;59.79;100713.57;123608;1099;104863;-80
2024/01/13 02:33:03;;;;;;;13.13;4.60;;;;;;;-7.91;59.40;100706.52;123634;1099;104283;-80
2024/01/13 02:35:34;;;;;;;14.67;4.77;;;;;;;-7.95;59.53;100702.73;123600;1099;104291;-80
2024/01/13 02:38:05;;;;;;;17.07;4.63;;;;;;;-7.97;60.97;100704.18;123243;1099;104286;-80
2024/01/13 02:40:37;;;;;;;12.40;4.80;;;;;;;-8.01;60.47;100702.05;123682;1099;104379;-80
2024/01/13 02:43:08;;;;;;;10.93;4.17;;;;;;;-8.02;60.28;100700.22;123439;1099;104265;-80
2024/01/13 02:45:39;;;;;;;12.35;4.20;;;;;;;-8.09;60.16;100695.16;123662;1099;104264;-80
2024/01/13 02:48:14;;;;;;;11.23;4.03;;;;;;;-8.06;59.53;100690.41;123449;1099;104303;-80
2024/01/13 02:50:51;;;;;;;14.15;4.30;;;;;;;-8.09;60.12;100686.63;123794;1099;104245;-80
2024/01/13 02:53:22;;;;;;;12.57;4.10;;;;;;;-8.10;60.58;100679.72;123622;1099;104460;-80
2024/01/13 02:55:53;;;;;;;11.00;4.10;;;;;;;-8.09;59.97;100679.89;123244;1099;104622;-78
2024/01/13 02:58:24;;;;;;;10.13;4.17;;;;;;;-8.10;60.33;100683.19;123172;1098;104267;-78
2024/01/13 03:00:55;;;;;;;8.73;3.40;;;;;;;-8.12;61.02;100687.18;123610;1099;104332;-78
2024/01/13 03:03:27;;;;;;;10.33;3.70;;;;;;;-8.12;61.01;100682.09;123247;1099;104270;-79
2024/01/13 03:05:58;;;;;;;13.23;3.97;;;;;;;-8.14;59.81;100675.93;123667;1099;104236;-79
2024/01/13 03:08:29;;;;;;;15.90;4.80;;;;;;;-8.13;60.39;100671.01;123628;1099;104277;-78
2024/01/13 03:11:01;;;;;;;12.90;4.33;;;;;;;-8.12;59.42;100666.81;123632;1099;104265;-78
2024/01/13 03:13:32;;;;;;;13.53;5.10;;;;;;;-8.14;60.18;100675.93;123605;1099;104249;-78
2024/01/13 03:16:03;;;;;;;19.03;4.60;;;;;;;-8.16;60.77;100673.21;123686;1099;104168;-78
2024/01/13 03:18:36;;;;;;;11.33;4.83;;;;;;;-8.18;60.18;100661.96;123140;1099;104255;-79
2024/01/13 03:21:07;;;;;;;10.17;4.13;;;;;;;-8.16;59.73;100659.59;123275;1099;104277;-78
2024/01/13 03:23:38;;;;;;;17.37;4.43;;;;;;;-8.19;60.73;100660.14;123195;1099;104275;-78
2024/01/13 03:26:09;;;;;;;13.43;4.60;;;;;;;-8.22;60.20;100653.80;123393;1099;104169;-78
2024/01/13 03:28:41;;;;;;;13.77;4.63;;;;;;;-8.21;60.75;100642.86;123438;1099;104220;-80
2024/01/13 03:31:13;;;;;;;12.77;4.37;;;;;;;-8.16;61.24;100639.22;123245;1099;104744;-79
2024/01/13 03:33:44;;;;;;;16.73;5.17;;;;;;;-8.14;60.59;100645.38;123219;1102;104277;-78
2024/01/13 03:36:15;;;;;;;17.53;5.67;;;;;;;-8.11;59.70;100643.17;123519;1099;104277;-78
2024/01/13 03:38:46;;;;;;;17.17;5.40;;;;;;;-8.07;60.79;100635.14;123245;1099;104322;-78
2024/01/13 03:41:22;;;;;;;12.03;4.70;;;;;;;-8.03;60.21;100632.18;123239;1102;104271;-78
2024/01/13 03:43:53;;;;;;;18.80;5.20;;;;;;;-8.02;59.97;100628.91;123266;1099;104476;-78
2024/01/13 03:46:24;;;;;;;11.30;4.40;;;;;;;-8.00;59.92;100631.62;123504;1099;104242;-78
2024/01/13 03:48:56;;;;;;;12.83;4.87;;;;;;;-8.02;61.14;100625.47;123564;1099;104274;-78
2024/01/13 03:51:27;;;;;;;12.70;4.50;;;;;;;-7.99;60.45;100620.72;123634;1099;104223;-78
2024/01/13 03:53:58;;;;;;;13.43;4.57;;;;;;;-7.98;60.64;100613.25;123168;1102;104335;-78
2024/01/13 03:56:30;;;;;;;12.67;4.97;;;;;;;-7.95;61.37;100600.84;123329;1102;118556;-78
2024/01/13 03:59:01;;;;;;;15.53;5.20;;;;;;;-7.96;59.69;100604.12;123671;1099;104303;-78
2024/01/13 04:01:32;;;;;;;15.30;4.53;;;;;;;-7.91;60.28;100596.09;123426;1100;104884;-79
2024/01/13 04:04:03;;;;;;;12.80;4.37;;;;;;;-7.89;60.74;100594.60;123355;1099;104364;-78
2024/01/13 04:06:39;;;;;;;13.20;4.93;;;;;;;-7.88;60.58;100587.13;123451;1099;104268;-78
2024/01/13 04:09:10;;;;;;;15.20;4.65;;;;;;;-7.85;60.12;100589.09;123603;1099;104357;-78
2024/01/13 04:11:41;;;;;;;13.70;4.70;;;;;;;-7.82;61.06;100591.97;123440;1102;104363;-78
2024/01/13 04:14:12;;;;;;;13.60;4.47;;;;;;;-7.83;60.33;100585.98;123921;1099;104252;-78
2024/01/13 04:16:43;;;;;;;11.35;4.60;;;;;;;-7.81;60.96;100578.50;123504;1098;104620;-78
2024/01/13 04:19:15;;;;;;;12.23;4.37;;;;;;;-7.73;60.85;100576.80;123296;1102;104406;-78
2024/01/13 04:21:46;;;;;;;14.70;5.23;;;;;;;-7.68;61.46;100575.64;123248;1099;104267;-78
2024/01/13 04:24:18;;;;;;;17.70;5.10;;;;;;;-7.65;61.90;100576.90;123696;1098;104698;-78
2024/01/13 04:26:49;;;;;;;13.67;5.10;;;;;;;-7.62;61.53;100567.03;123559;1099;104616;-78
2024/01/13 04:29:20;;;;;;;13.37;5.10;;;;;;;-7.58;61.16;100565.72;123210;1099;104274;-78
2024/01/13 04:31:51;;;;;;;15.17;5.00;;;;;;;-7.53;61.67;100566.21;123375;1100;104270;-79
2024/01/13 04:34:22;;;;;;;15.20;5.20;;;;;;;-7.55;61.53;100553.30;123791;1099;104226;-78
2024/01/13 04:36:53;;;;;;;14.50;5.30;;;;;;;-7.52;62.00;100550.19;123666;1099;104223;-78
2024/01/13 04:39:24;;;;;;;15.57;5.73;;;;;;;-7.50;60.80;100546.15;123444;1099;104269;-78
2024/01/13 04:41:56;;;;;;;12.73;5.03;;;;;;;-7.46;61.51;100548.30;123264;1099;104322;-78
2024/01/13 04:44:27;;;;;;;13.85;5.25;;;;;;;-7.41;61.32;100549.69;123714;1099;104274;-78
2024/01/13 04:46:58;;;;;;;14.37;5.73;;;;;;;-7.36;61.09;100551.07;123619;1099;104268;-78
2024/01/13 04:49:29;;;;;;;15.30;5.30;;;;;;;-7.32;61.74;100553.22;123481;1102;104277;-78
2024/01/13 04:52:00;;;;;;;14.40;5.43;;;;;;;-7.27;62.00;100540.97;123635;1098;104255;-78
2024/01/13 04:54:31;;;;;;;17.83;5.80;;;;;;;-7.23;61.75;100536.35;123584;1099;104274;-79
2024/01/13 04:57:03;;;;;;;13.77;5.20;;;;;;;-7.17;61.75;100532.63;123325;1099;104302;-78
2024/01/13 04:59:34;;;;;;;12.43;4.90;;;;;;;-7.16;61.41;100525.14;123815;1099;104313;-78
2024/01/13 05:02:05;;;;;;;11.83;5.17;;;;;;;-7.12;61.88;100529.84;123595;1099;104341;-78
2024/01/13 05:04:37;;;;;;;16.37;5.33;;;;;;;-7.07;62.21;100525.23;123799;1099;104255;-78
2024/01/13 05:07:08;;;;;;;14.03;5.33;;;;;;;-7.03;61.31;100527.33;123461;1098;104426;-78
2024/01/13 05:09:39;;;;;;;15.77;5.33;;;;;;;-6.99;61.97;100520.92;123753;1099;104590;-78
2024/01/13 05:12:11;;;;;;;13.57;5.00;;;;;;;-6.98;62.42;100517.61;123314;1102;104730;-78
2024/01/13 05:14:42;;;;;;;19.03;5.03;;;;;;;-6.92;61.87;100525.91;123698;1099;104271;-78
2024/01/13 05:17:13;;;;;;;14.70;5.07;;;;;;;-6.93;61.92;100508.81;123826;1099;104268;-79
2024/01/13 05:19:44;;;;;;;15.17;5.57;;;;;;;-6.89;61.58;100516.02;123759;1099;104312;-79
2024/01/13 05:22:15;;;;;;;18.43;6.20;;;;;;;-6.89;62.62;100504.20;123843;1099;104220;-79
2024/01/13 05:24:46;;;;;;;16.73;5.23;;;;;;;-6.88;61.93;100498.33;123331;1099;104354;-79
2024/01/13 05:27:18;;;;;;;17.00;5.73;;;;;;;-6.84;62.58;100506.30;123214;1099;104245;-79
2024/01/13 05:29:49;;;;;;;14.40;5.55;;;;;;;-6.81;62.14;100504.06;123332;1099;104274;-79
2024/01/13 05:32:20;;;;;;;15.60;5.57;;;;;;;-6.76;63.04;100500.34;123683;1099;104348;-79
2024/01/13 05:34:51;;;;;;;13.63;5.30;;;;;;;-6.71;62.02;100494.98;123680;1099;104267;-79
2024/01/13 05:37:23;;;;;;;15.27;4.93;;;;;;;-6.64;62.80;100487.95;123582;1099;104658;-79
2024/01/13 05:39:54;;;;;;;13.07;5.10;;;;;;;-6.61;62.54;100496.82;123760;1099;104648;-79
2024/01/13 05:42:25;;;;;;;15.10;5.23;;;;;;;-6.63;63.07;100490.66;123740;1099;104325;-80
2024/01/13 05:44:56;;;;;;;23.10;5.87;;;;;;;-6.63;63.13;100482.11;123569;1099;104246;-79
2024/01/13 05:47:28;;;;;;;16.50;5.50;;;;;;;-6.61;63.12;100473.84;123385;1099;104261;-80
2024/01/13 05:50:00;;;;;;;17.93;6.00;;;;;;;-6.57;62.67;100475.98;123714;1099;104676;-80
2024/01/13 05:52:32;;;;;;;16.15;5.50;;;;;;;-6.55;63.06;100473.59;123654;1099;104274;-79
2024/01/13 05:55:04;;;;;;;12.40;4.93;;;;;;;-6.51;62.67;100475.72;123675;1099;104271;-80
2024/01/13 05:57:35;;;;;;;16.17;5.43;;;;;;;-6.51;62.70;100465.50;123605;1099;104750;-80
2024/01/13 06:00:09;;;;;;;18.47;5.43;;;;;;;-6.47;63.70;100461.60;123732;1099;104829;-80
2024/01/13 06:02:41;;;;;;;18.07;5.50;;;;;;;-6.43;63.25;100464.63;123773;1099;104307;-79
2024/01/13 06:05:12;;;;;;;13.25;5.30;;;;;;;-6.36;63.41;100461.04;123560;1099;104287;-80
2024/01/13 06:07:44;;;;;;;15.10;5.40;;;;;;;-6.37;63.90;100457.59;123699;1099;104239;-80
2024/01/13 06:10:18;;;;;;;13.17;5.90;;;;;;;-6.37;63.93;100459.25;123726;1099;104265;-79
2024/01/13 06:12:49;;;;;;;14.17;5.67;;;;;;;-6.36;64.32;100456.86;123883;1099;104351;-80
2024/01/13 06:15:20;;;;;;;17.80;5.70;;;;;;;-6.34;63.77;100454.46;123615;1099;104348;-79
2024/01/13 06:17:51;;;;;;;17.63;5.57;;;;;;;-6.30;64.14;100451.45;123978;1099;104712;-79
2024/01/13 06:20:22;;;;;;;18.63;5.77;;;;;;;-6.24;63.99;100454.63;123945;1099;104245;-80
2024/01/13 06:22:54;;;;;;;16.05;5.65;;;;;;;-6.17;64.01;100454.50;123765;1099;104249;-80
2024/01/13 06:25:25;;;;;;;16.15;5.95;;;;;;;-6.10;64.34;100456.02;123694;1099;104316;-79
2024/01/13 06:27:56;;;;;;;16.80;5.83;;;;;;;-6.04;63.68;100453.18;123728;1098;104386;-79
2024/01/13 06:30:27;;;;;;;14.40;5.97;;;;;;;-5.99;63.85;100442.66;123903;1099;104242;-80
2024/01/13 06:32:59;;;;;;;14.30;5.35;;;;;;;-5.96;64.04;100445.48;123810;1098;104277;-80
2024/01/13 06:35:30;;;;;;;17.67;6.13;;;;;;;-5.93;64.53;100438.89;123396;1099;104239;-80
2024/01/13 06:38:01;;;;;;;14.50;5.60;;;;;;;-5.91;65.12;100433.16;123872;1099;104440;-81
2024/01/13 06:40:33;;;;;;;19.67;6.53;;;;;;;-5.91;64.02;100427.16;123808;1099;104325;-80
2024/01/13 06:43:06;;;;;;;17.50;6.00;;;;;;;-5.89;64.26;100429.12;123916;1099;104296;-80
2024/01/13 06:45:37;;;;;;;15.45;6.10;;;;;;;-5.83;64.87;100428.81;123667;1099;104341;-80
2024/01/13 06:48:09;;;;;;;13.17;5.57;;;;;;;-5.76;64.52;100433.79;124131;1099;104162;-80
2024/01/13 06:50:40;;;;;;;16.40;6.43;;;;;;;-5.70;64.66;100430.91;123691;1099;104271;-80
2024/01/13 06:53:11;;;;;;;18.10;5.80;;;;;;;-5.67;64.56;100434.70;124027;1099;104249;-79
2024/01/13 06:55:42;;;;;;;18.80;6.80;;;;;;;-5.56;64.64;100439.95;123755;1099;104402;-79
2024/01/13 06:58:13;;;;;;;15.40;5.73;;;;;;;-5.47;65.04;100428.98;123724;1099;104415;-79
2024/01/13 07:00:45;;;;;;;15.30;6.03;;;;;;;-5.37;65.00;100430.78;123438;1099;104289;-79
2024/01/13 07:03:16;;;;;;;15.37;6.07;;;;;;;-5.26;64.73;100431.81;123712;1099;104342;-80
2024/01/13 07:05:47;;;;;;;18.15;6.25;;;;;;;-5.18;64.92;100430.00;123694;1099;104437;-79
2024/01/13 07:08:18;;;;;;;16.23;6.57;;;;;;;-5.10;65.34;100429.97;123629;1099;104222;-80
2024/01/13 07:10:51;;;;;;;18.50;7.10;;;;;;;-5.02;64.70;100429.81;123266;1099;104242;-80
2024/01/13 07:13:22;;;;;;;16.47;5.50;;;;;;;-4.97;65.49;100424.39;123838;1098;104350;-80
2024/01/13 07:15:53;;;;;;;18.35;6.95;;;;;;;-4.93;64.95;100407.66;123742;1099;104344;-79
2024/01/13 07:18:24;;;;;;;17.37;6.63;;;;;;;-4.85;64.68;100416.96;124025;1099;104530;-79
2024/01/13 07:20:56;;;;;;;19.47;7.10;;;;;;;-4.76;65.65;100410.16;124126;1099;104421;-80
2024/01/13 07:23:28;;;;;;;15.65;6.65;;;;;;;-4.67;65.44;100422.02;124127;1099;104261;-80
2024/01/13 07:26:01;;;;;;;19.05;6.70;;;;;;;-4.56;65.07;100413.70;123530;1099;104162;-79
2024/01/13 07:28:32;;;;;;;20.95;7.10;;;;;;;-4.43;65.34;100408.95;123789;1099;104248;-80
2024/01/13 07:31:04;;;;;;;18.03;6.10;;;;;;;-4.28;65.49;100406.93;123392;1099;104361;-80
2024/01/13 07:33:35;;;;;;;17.63;6.17;;;;;;;-4.13;66.08;100402.30;123509;1099;104417;-80
2024/01/13 07:36:07;;;;;;;14.33;6.17;;;;;;;-4.02;65.88;100398.16;123682;1099;104245;-80
2024/01/13 07:38:38;;;;;;;20.17;7.17;;;;;;;-3.95;65.63;100397.97;123553;1099;104680;-80
2024/01/13 07:41:11;;;;;;;16.37;7.00;;;;;;;-3.90;65.65;100390.70;123862;1099;104249;-80
2024/01/13 07:43:42;;;;;;;19.97;6.43;;;;;;;-3.86;65.53;100397.92;123795;1099;104271;-79
2024/01/13 07:46:13;;;;;;;19.53;7.23;;;;;;;-3.81;65.30;100391.54;123870;1099;104306;-79
2024/01/13 07:48:44;;;;;;;19.83;6.73;;;;;;;-3.72;65.78;100392.38;123612;1099;104268;-79
2024/01/13 07:51:15;;;;;;;17.43;7.03;;;;;;;-3.67;65.30;100396.24;123910;1099;111620;-79
2024/01/13 07:53:47;;;;;;;18.30;6.90;;;;;;;-3.67;65.86;100396.24;123518;1099;104245;-79
2024/01/13 07:56:19;;;;;;;20.33;6.70;;;;;;;-3.72;65.35;100396.61;123674;1099;104319;-80
2024/01/13 07:58:50;;;;;;;20.63;7.23;;;;;;;-3.74;66.09;100391.34;123800;1099;104398;-80
2024/01/13 08:01:21;;;;;;;18.75;7.10;;;;;;;-3.68;65.29;100389.30;123851;1099;104360;-79
2024/01/13 08:03:52;;;;;;;19.20;6.75;;;;;;;-3.59;65.90;100394.37;123484;1099;104259;-79
2024/01/13 08:06:23;;;;;;;19.90;6.60;;;;;;;-3.51;66.30;100402.75;123831;1099;104245;-79
2024/01/13 08:08:55;;;;;;;20.80;7.07;;;;;;;-3.48;66.03;100397.91;123877;1099;104728;-79
2024/01/13 08:11:28;;;;;;;17.17;7.03;;;;;;;-3.42;66.07;100393.31;123851;1099;104321;-80
2024/01/13 08:14:01;;;;;;;19.17;7.63;;;;;;;-3.34;66.86;100392.33;123955;1099;104245;-79
2024/01/13 08:16:32;;;;;;;15.23;6.27;;;;;;;-3.26;67.15;100385.30;123808;1099;104252;-79
2024/01/13 08:19:03;;;;;;;17.87;7.87;;;;;;;-3.23;66.68;100393.28;123861;1099;104313;-79
2024/01/13 08:21:35;;;;;;;20.03;7.97;;;;;;;-3.14;66.95;100391.52;123476;1099;104761;-80
2024/01/13 08:24:06;;;;;;;21.47;7.60;;;;;;;-3.03;66.39;100396.72;123871;1099;104686;-79
2024/01/13 08:26:38;;;;;;;16.60;7.07;;;;;;;-3.00;66.06;100390.17;123787;1099;104361;-79
2024/01/13 08:29:09;;;;;;;18.60;7.50;;;;;;;-2.99;67.11;100398.77;123789;1099;104255;-79
2024/01/13 08:31:41;;;;;;;18.00;7.83;;;;;;;-3.00;66.70;100397.88;123837;1099;104232;-79
2024/01/13 08:34:13;;;;;;;19.63;7.67;;;;;;;-2.97;66.64;100393.01;123864;1099;104299;-79
2024/01/13 08:36:44;;;;;;;17.70;7.25;;;;;;;-2.90;66.48;100389.30;123677;1099;104416;-80
2024/01/13 08:39:16;;;;;;;19.60;7.90;;;;;;;-2.89;67.12;100381.73;123611;1099;104363;-79
2024/01/13 08:41:47;;;;;;;19.83;8.07;;;;;;;-2.86;66.94;100381.11;123853;1099;104703;-80
2024/01/13 08:44:18;;;;;;;20.20;8.20;;;;;;;-2.80;67.25;100383.31;123539;1099;104180;-79
2024/01/13 08:46:49;;;;;;;19.40;8.10;;;;;;;-2.76;67.31;100378.58;123833;1099;104316;-79
2024/01/13 08:49:23;;;;;;;21.60;8.83;;;;;;;-2.66;67.12;100372.55;123491;1099;104239;-79
2024/01/13 08:51:54;;;;;;;23.07;9.83;;;;;;;-2.54;67.54;100365.90;123973;1099;104207;-79
2024/01/13 08:54:25;;;;;;;25.87;10.07;;;;;;;-2.42;66.51;100360.00;123930;1099;104636;-79
2024/01/13 08:56:57;;;;;;;27.13;9.67;;;;;;;-2.37;66.31;100364.77;123864;1099;104364;-79
2024/01/13 08:59:28;;;;;;;23.03;9.63;;;;;;;-2.33;67.96;100363.34;123807;1099;104316;-80
2024/01/13 09:01:59;;;;;;;22.20;8.67;;;;;;;-2.35;66.39;100360.64;123777;1099;104396;-80
2024/01/13 09:04:31;;;;;;;22.30;9.17;;;;;;;-2.32;67.46;100360.02;123845;1099;104351;-79
2024/01/13 09:07:02;;;;;;;22.30;9.73;;;;;;;-2.21;67.88;100350.64;123569;1099;104303;-79
2024/01/13 09:09:33;;;;;;;23.40;9.20;;;;;;;-2.14;66.96;100360.64;123562;1099;104383;-79
2024/01/13 09:12:05;;;;;;;24.13;9.50;;;;;;;-2.12;66.58;100346.27;123929;1099;104245;-80
2024/01/13 09:14:36;;;;;;;22.07;9.40;;;;;;;-2.03;67.92;100348.69;123950;1099;104274;-79
2024/01/13 09:17:07;;;;;;;23.70;8.80;;;;;;;-1.92;67.05;100342.75;123645;1099;104702;-80
2024/01/13 09:19:39;;;;;;;23.17;9.80;;;;;;;-1.85;67.63;100349.32;123649;1099;104182;-79
2024/01/13 09:22:10;;;;;;;23.43;9.53;;;;;;;-1.77;67.56;100350.84;123844;1099;104364;-80
2024/01/13 09:24:44;;;;;;;22.33;9.47;;;;;;;-1.69;68.26;100343.75;123881;1099;104367;-79
2024/01/13 09:27:16;;;;;;;;;;;;;;;-1.61;68.42;100345.27;123912;1099;104245;-81
2024/01/13 09:29:48;;;;;;;21.97;9.63;;;;;;;-1.53;67.30;100345.89;123965;1099;104246;-81
2024/01/13 09:32:19;;;;;;;21.45;8.70;;;;;;;-1.46;67.73;100346.52;123563;1098;104290;-81
2024/01/13 09:34:51;;;;;;;23.57;10.10;;;;;;;-1.38;67.73;100333.38;123855;1099;104172;-81
2024/01/13 09:37:22;;;;;;;23.13;9.70;;;;;;;-1.34;67.83;100335.39;124160;1099;104239;-80
2024/01/13 09:39:53;;;;;;;26.33;9.23;;;;;;;-1.32;67.73;100337.33;123531;1099;104175;-80
2024/01/13 09:42:31;;;;;;;23.90;9.37;;;;;;;-1.29;68.50;100336.69;123837;1099;104283;-81
2024/01/13 09:45:02;;;;;;;21.73;9.73;;;;;;;-1.23;67.96;100334.60;123591;1099;104393;-80
2024/01/13 09:47:33;;;;;;;22.73;9.10;;;;;;;-1.14;68.01;100330.19;123994;1099;104350;-80
2024/01/13 09:50:07;;;;;;;24.30;10.07;;;;;;;-1.06;67.98;100332.45;123754;1099;104252;-80
2024/01/13 09:52:41;;;;;;;24.32;9.95;;;;;;;-1.04;67.74;100333.45;124227;1099;104290;-80
2024/01/13 09:55:15;;;;;;;;;;;;;;;-1.05;68.29;100334.25;123736;1099;104354;-80
2024/01/13 09:57:47;;;;;;;23.40;9.33;;;;;;;-1.02;68.17;100324.20;124101;1099;104274;-81
2024/01/13 10:00:19;;;;;;;23.33;9.73;;;;;;;-0.96;68.44;100322.99;123901;1099;104274;-80
2024/01/13 10:02:50;;;;;;;22.80;9.83;;;;;;;-0.87;67.88;100315.09;123848;1099;104329;-81
2024/01/13 10:05:21;;;;;;;21.17;9.03;;;;;;;-0.86;68.51;100322.02;123721;1099;104278;-79
2024/01/13 10:07:54;;;;;;;20.83;9.03;;;;;;;-0.95;68.21;100327.38;123984;1099;104322;-81
2024/01/13 10:10:28;;;;;;;22.40;10.03;;;;;;;-1.04;68.48;100333.45;123831;1099;104351;-81
2024/01/13 10:12:59;;;;;;;21.73;9.18;;;;;;;-1.15;68.44;100327.48;123698;1099;104299;-81
2024/01/13 10:15:30;;;;;;;22.73;9.70;;;;;;;-1.21;69.12;100324.42;123579;1099;104341;-81
2024/01/13 10:18:02;;;;;;;20.47;8.67;;;;;;;-1.30;69.35;100319.43;123988;1099;104278;-80
2024/01/13 10:20:34;;;;;;;21.93;9.40;;;;;;;-1.40;69.25;100319.45;123706;1099;104229;-81
2024/01/13 10:23:05;;;;;;;20.60;9.50;;;;;;;-1.41;69.25;100318.56;123863;1099;104258;-80
2024/01/13 10:25:37;;;;;;;22.70;9.70;;;;;;;-1.32;69.70;100313.27;123566;1099;104185;-80
2024/01/13 10:28:08;;;;;;;21.47;9.40;;;;;;;-1.19;69.94;100320.28;123956;1099;104249;-80
2024/01/13 10:30:41;;;;;;;21.83;9.47;;;;;;;-1.02;69.89;100301.02;124207;1099;104345;-80
2024/01/13 10:33:13;;;;;;;20.93;9.20;;;;;;;-0.94;69.02;100305.97;124161;1099;104283;-80
2024/01/13 10:35:44;;;;;;;24.03;10.43;;;;;;;-0.92;69.39;100304.44;124356;1099;104323;-80
2024/01/13 10:38:16;;;;;;;27.20;11.63;;;;;;;-0.83;70.00;100301.66;124415;1099;104245;-81
2024/01/13 10:40:47;;;;;;;26.07;11.40;;;;;;;-0.74;69.19;100302.38;124334;1099;104361;-81
2024/01/13 10:43:22;;;;;;;24.50;10.30;;;;;;;-0.66;70.13;100299.50;123873;1099;104245;-80
2024/01/13 10:46:01;;;;;;;25.90;11.20;;;;;;;-0.57;69.87;100300.20;124073;1099;104246;-81
2024/01/13 10:48:43;;;;;;;26.07;11.27;;;;;;;-0.49;70.31;100298.21;124072;1099;104345;-81
2024/01/13 10:51:31;;;;;;;22.13;10.27;;;;;;;-0.43;70.04;100294.41;124039;1099;104271;-81
2024/01/13 10:54:06;;;;;;;24.67;10.73;;;;;;;-0.30;69.96;100287.61;123985;1099;104322;-81
2024/01/13 10:56:38;;;;;;;24.57;11.33;;;;;;;-0.18;69.92;100293.69;124096;1099;104281;-81
2024/01/13 10:59:11;;;;;;;25.50;11.10;;;;;;;-0.12;69.77;100290.69;124134;1099;104281;-80
2024/01/13 11:01:44;;;;;;;26.80;11.37;;;;;;;-0.05;70.06;100282.59;124060;1099;104271;-80
2024/01/13 11:04:18;;;;;;;25.77;10.70;;;;;;;0.06;70.67;100285.98;123989;1099;104258;-81
2024/01/13 11:06:49;;;;;;;23.67;10.83;;;;;;;0.16;70.48;100288.46;123896;1099;104483;-81
2024/01/13 11:09:23;;;;;;;25.07;10.73;;;;;;;0.20;70.10;100298.20;124029;1099;104197;-81
2024/01/13 11:12:07;;;;;;;28.37;11.93;;;;;;;0.27;70.41;100291.83;123676;1099;104252;-81
2024/01/13 11:14:45;;;;;;;27.37;11.35;;;;;;;0.25;70.24;100289.14;123842;1099;104278;-81
2024/01/13 11:17:18;;;;;;;25.67;11.23;;;;;;;0.28;70.73;100289.36;124020;1098;104261;-80
2024/01/13 11:19:49;;;;;;;23.87;11.00;;;;;;;0.35;70.56;100288.12;124045;1099;104245;-82
2024/01/13 11:22:37;;;;;;;27.83;12.67;;;;;;;0.42;70.43;100286.88;123971;1099;104275;-81